Hlavní strana
METAR-TAF:

METAR-TAF

Letiště :

Baden-Baden, Německo

zeměpisná šířka: 48-46-43N, zeměpisná délka: 008-04-47E, výška: 124 m

Aktuální stav počasí

Zpráva byla vytvořena před 23 minutami, v 02:50 UTC
Jihojihozápadní vítr 9 kt
Teplota 20°C
Vlhkost vzduchu 94%
Tlak 1013 hPa
Viditelnost 10 km a více

METAR: EDSB 160250Z AUTO 20009KT 9999 // FEW069/// 20/19 Q1013

Čas: 05:13 (03:13 UTC)

Předpověď počasí

Zpráva byla vytvořena před 4 hodinami a 13 minutami, v 23:00 UTC
Předpověď platná od 16 v 00 UTC do 16 v 24 UTC
Jihozápadní vítr 5 kt
Viditelnost 10 km a více
Žádná oblačnost pod 1500 m, nevyskytují se cumulonimby.
Změna
od 16 v 06 UTC do 16 v 08 UTC
Jihozápadní vítr 10 kt
Změna
od 16 v 18 UTC do 16 v 20 UTC
Jihozápadní vítr 4 kt

TAF: EDSB 152300Z 1600/1624 22005KT CAVOK BECMG 1606/1608 22010KT BECMG 1618/1620 22004KT

Stav a předpovědi počasí z více než 4 000 letišť (zprávy METAR a TAF).

Červené a žluté tečky na mapě představují dostupné meteorologické stanice.

Když kurzor umístíte na tečku, zobrazí se název stanice.

Pak kliknutím zobrazíte stav a předpověď počasí.

Chcete-li změnit mapu, kliknutím na zelené tlačítko se znaménkem +mapu přiblížíte, kliknutím na zelené tlačítko se znaménkem – mapu oddálíte a kliknutím na zelené šipky přejdete na sousední mapy.


METAR-TAF: